TVF55JD LFPO-LIPZ
Flight info
| Callsign | TVF55JD |
|---|---|
| Flight time | 1h 16m |
| Altitude | 35000 |
| Route | OKASI DCT OKEKO DCT MOU DCT MADIV DCT MOKIP DCT TUFTA DCT GEVEA DCT ORSUD DCT BIBAN DCT GARLO DCT INVOP DCT SRN/N0457F340 DCT DESIP DCT PEXUG DCT LEGLO DCT OSKOR DCT NEVNI DCT ELTAR DCT ADOSA L612 ALBET |
| Aircraft | B738/M-SDE2E3FGHIRWXY/LB1 |
Departure
| Time | 2026-05-06 07:44 |
|---|---|
| Airport | Paris-Orly Airport (LFPO) |
Arrival
| Time | 2026-05-06 09:00 |
|---|---|
| Airport | Venice Marco Polo Airport (LIPZ) |
| Time | Latitude | Longitude | Altitude | Speed | Heading |
|---|---|---|---|---|---|
| 2026-05-06 07:31 | 48.72626 | 2.36388 | 300 ft | 0 kts | 344° |
| 2026-05-06 07:36 | 48.72617 | 2.36393 | 304 ft | 4 kts | 344° |
| 2026-05-06 07:36 | 48.72590 | 2.36404 | 302 ft | 4 kts | 344° |
| 2026-05-06 07:36 | 48.72570 | 2.36412 | 301 ft | 4 kts | 341° |
| 2026-05-06 07:37 | 48.72548 | 2.36430 | 303 ft | 4 kts | 297° |
| 2026-05-06 07:37 | 48.72548 | 2.36460 | 303 ft | 4 kts | 255° |
| 2026-05-06 07:37 | 48.72554 | 2.36494 | 302 ft | 1 kts | 255° |
| 2026-05-06 07:37 | 48.72554 | 2.36495 | 302 ft | 0 kts | 255° |
| 2026-05-06 07:39 | 48.72554 | 2.36492 | 298 ft | 1 kts | 255° |
| 2026-05-06 07:39 | 48.72548 | 2.36461 | 300 ft | 4 kts | 255° |
| 2026-05-06 07:40 | 48.72539 | 2.36409 | 298 ft | 6 kts | 255° |
| 2026-05-06 07:40 | 48.72529 | 2.36349 | 302 ft | 6 kts | 255° |
| 2026-05-06 07:40 | 48.72517 | 2.36282 | 302 ft | 7 kts | 255° |
| 2026-05-06 07:40 | 48.72488 | 2.36231 | 299 ft | 7 kts | 197° |
| 2026-05-06 07:41 | 48.72439 | 2.36240 | 301 ft | 7 kts | 166° |
| 2026-05-06 07:41 | 48.72388 | 2.36261 | 300 ft | 8 kts | 165° |
| 2026-05-06 07:41 | 48.72331 | 2.36288 | 299 ft | 9 kts | 159° |
| 2026-05-06 07:41 | 48.72278 | 2.36340 | 300 ft | 9 kts | 136° |
| 2026-05-06 07:42 | 48.72240 | 2.36417 | 300 ft | 9 kts | 120° |
| 2026-05-06 07:42 | 48.72207 | 2.36501 | 300 ft | 9 kts | 131° |
| 2026-05-06 07:42 | 48.72151 | 2.36543 | 300 ft | 9 kts | 163° |
| 2026-05-06 07:42 | 48.72094 | 2.36575 | 303 ft | 9 kts | 142° |
| 2026-05-06 07:43 | 48.72089 | 2.36660 | 304 ft | 9 kts | 72° |
| 2026-05-06 07:43 | 48.72104 | 2.36727 | 301 ft | 0 kts | 72° |
| 2026-05-06 07:43 | 48.72120 | 2.36824 | 299 ft | 35 kts | 75° |
| 2026-05-06 07:43 | 48.72256 | 2.37550 | 294 ft | 106 kts | 74° |
| 2026-05-06 07:44 | 48.72504 | 2.38918 | 304 ft | 162 kts | 71° |
| 2026-05-06 07:44 | 48.72790 | 2.40624 | 852 ft | 165 kts | 71° |
| 2026-05-06 07:44 | 48.73096 | 2.42287 | 1802 ft | 159 kts | 68° |
| 2026-05-06 07:44 | 48.73404 | 2.43903 | 2497 ft | 167 kts | 69° |
| 2026-05-06 07:45 | 48.73760 | 2.45744 | 2731 ft | 194 kts | 70° |
| 2026-05-06 07:45 | 48.74091 | 2.47851 | 2894 ft | 219 kts | 80° |
| 2026-05-06 07:45 | 48.74160 | 2.50252 | 3194 ft | 236 kts | 84° |
| 2026-05-06 07:45 | 48.74237 | 2.52842 | 3454 ft | 256 kts | 84° |
| 2026-05-06 07:46 | 48.74303 | 2.55580 | 4155 ft | 263 kts | 89° |
| 2026-05-06 07:46 | 48.73785 | 2.58239 | 5025 ft | 269 kts | 119° |
| 2026-05-06 07:46 | 48.72490 | 2.60286 | 5754 ft | 279 kts | 145° |
| 2026-05-06 07:46 | 48.70684 | 2.61411 | 6502 ft | 285 kts | 168° |
| 2026-05-06 07:47 | 48.68737 | 2.61853 | 7355 ft | 282 kts | 172° |
| 2026-05-06 07:47 | 48.66778 | 2.62243 | 8003 ft | 286 kts | 172° |
| 2026-05-06 07:47 | 48.64812 | 2.62579 | 8762 ft | 286 kts | 180° |
| 2026-05-06 07:47 | 48.62894 | 2.61890 | 9535 ft | 283 kts | 205° |
| 2026-05-06 07:48 | 48.61137 | 2.60568 | 10223 ft | 285 kts | 208° |
| 2026-05-06 07:48 | 48.59331 | 2.59136 | 10419 ft | 304 kts | 208° |
| 2026-05-06 07:48 | 48.57402 | 2.57603 | 10568 ft | 323 kts | 208° |
| 2026-05-06 07:48 | 48.55349 | 2.55987 | 10713 ft | 342 kts | 208° |
| 2026-05-06 07:49 | 48.53173 | 2.54292 | 10879 ft | 360 kts | 208° |
| 2026-05-06 07:49 | 48.50917 | 2.52546 | 11262 ft | 369 kts | 208° |
| 2026-05-06 07:49 | 48.48593 | 2.50820 | 11816 ft | 375 kts | 202° |
| 2026-05-06 07:49 | 48.46013 | 2.50091 | 12354 ft | 384 kts | 180° |
| 2026-05-06 07:50 | 48.44244 | 2.50412 | 12755 ft | 390 kts | 167° |
| 2026-05-06 07:50 | 48.40896 | 2.52588 | 13672 ft | 395 kts | 153° |
| 2026-05-06 07:50 | 48.39279 | 2.53871 | 14117 ft | 397 kts | 153° |
| 2026-05-06 07:50 | 48.36820 | 2.55843 | 14673 ft | 404 kts | 153° |
| 2026-05-06 07:51 | 48.34323 | 2.57820 | 15246 ft | 408 kts | 154° |
| 2026-05-06 07:51 | 48.31811 | 2.59773 | 16063 ft | 404 kts | 154° |
| 2026-05-06 07:51 | 48.29291 | 2.61711 | 16614 ft | 410 kts | 154° |
| 2026-05-06 07:51 | 48.26737 | 2.63667 | 17150 ft | 414 kts | 154° |
| 2026-05-06 07:52 | 48.24158 | 2.65646 | 17765 ft | 416 kts | 154° |
| 2026-05-06 07:52 | 48.21605 | 2.67606 | 18339 ft | 419 kts | 154° |
| 2026-05-06 07:52 | 48.18975 | 2.69626 | 18892 ft | 418 kts | 154° |
| 2026-05-06 07:52 | 48.16407 | 2.71596 | 19542 ft | 414 kts | 153° |
| 2026-05-06 07:53 | 48.13871 | 2.73539 | 19949 ft | 416 kts | 153° |
| 2026-05-06 07:53 | 48.11286 | 2.75517 | 20317 ft | 419 kts | 153° |
| 2026-05-06 07:53 | 48.08683 | 2.77504 | 20674 ft | 422 kts | 154° |
| 2026-05-06 07:53 | 48.06028 | 2.79406 | 21125 ft | 422 kts | 157° |
| 2026-05-06 07:54 | 48.03333 | 2.81144 | 21560 ft | 422 kts | 158° |
| 2026-05-06 07:54 | 48.00609 | 2.82834 | 21923 ft | 425 kts | 158° |
| 2026-05-06 07:54 | 47.97866 | 2.84525 | 22194 ft | 430 kts | 158° |
| 2026-05-06 07:54 | 47.95090 | 2.86247 | 22541 ft | 432 kts | 158° |
| 2026-05-06 07:55 | 47.91387 | 2.88568 | 23171 ft | 431 kts | 158° |
| 2026-05-06 07:55 | 47.89551 | 2.89726 | 23429 ft | 433 kts | 158° |
| 2026-05-06 07:55 | 47.86775 | 2.91480 | 23734 ft | 434 kts | 158° |
| 2026-05-06 07:55 | 47.83980 | 2.93248 | 23926 ft | 439 kts | 158° |
| 2026-05-06 07:56 | 47.81172 | 2.95025 | 24256 ft | 439 kts | 158° |
| 2026-05-06 07:56 | 47.78365 | 2.96799 | 24601 ft | 439 kts | 158° |
| 2026-05-06 07:56 | 47.75544 | 2.98579 | 24807 ft | 442 kts | 157° |
| 2026-05-06 07:56 | 47.72722 | 3.00357 | 25282 ft | 438 kts | 158° |
| 2026-05-06 07:57 | 47.69923 | 3.02118 | 25646 ft | 437 kts | 157° |
| 2026-05-06 07:57 | 47.67096 | 3.03894 | 25755 ft | 442 kts | 157° |
| 2026-05-06 07:57 | 47.64262 | 3.05673 | 26027 ft | 443 kts | 158° |
| 2026-05-06 07:57 | 47.61455 | 3.07433 | 26287 ft | 444 kts | 158° |
| 2026-05-06 07:58 | 47.58603 | 3.09220 | 26476 ft | 447 kts | 158° |
| 2026-05-06 07:58 | 47.55736 | 3.11014 | 26716 ft | 448 kts | 158° |
| 2026-05-06 07:58 | 47.52858 | 3.12811 | 27113 ft | 445 kts | 157° |
| 2026-05-06 07:58 | 47.50017 | 3.14581 | 27545 ft | 442 kts | 158° |
| 2026-05-06 07:59 | 47.47183 | 3.16344 | 27798 ft | 442 kts | 158° |
| 2026-05-06 07:59 | 47.44342 | 3.18109 | 28045 ft | 443 kts | 158° |
| 2026-05-06 07:59 | 47.41502 | 3.19872 | 28360 ft | 442 kts | 158° |
| 2026-05-06 07:59 | 47.38676 | 3.21625 | 28755 ft | 439 kts | 158° |
| 2026-05-06 08:00 | 47.35870 | 3.23364 | 29178 ft | 435 kts | 158° |
| 2026-05-06 08:00 | 47.33081 | 3.25088 | 29559 ft | 433 kts | 157° |
| 2026-05-06 08:00 | 47.30314 | 3.26799 | 29946 ft | 431 kts | 157° |
| 2026-05-06 08:00 | 47.28761 | 3.27759 | 30107 ft | 430 kts | 157° |
| 2026-05-06 08:01 | 47.27350 | 3.28631 | 30210 ft | 430 kts | 157° |
| 2026-05-06 08:01 | 47.24584 | 3.30337 | 30323 ft | 433 kts | 157° |
| 2026-05-06 08:01 | 47.21809 | 3.32047 | 30623 ft | 430 kts | 157° |
| 2026-05-06 08:01 | 47.19060 | 3.33739 | 30932 ft | 428 kts | 157° |
| 2026-05-06 08:02 | 47.16296 | 3.35438 | 31045 ft | 431 kts | 157° |
| 2026-05-06 08:02 | 47.13519 | 3.37143 | 31161 ft | 434 kts | 157° |
| 2026-05-06 08:02 | 47.10735 | 3.38851 | 31360 ft | 434 kts | 157° |
| 2026-05-06 08:02 | 47.07945 | 3.40560 | 31586 ft | 434 kts | 157° |
| 2026-05-06 08:03 | 47.05152 | 3.42269 | 31780 ft | 435 kts | 157° |
| 2026-05-06 08:03 | 47.02351 | 3.43982 | 31947 ft | 437 kts | 158° |
| 2026-05-06 08:03 | 46.99541 | 3.45698 | 32120 ft | 438 kts | 158° |
| 2026-05-06 08:03 | 46.96732 | 3.47411 | 32315 ft | 439 kts | 158° |
| 2026-05-06 08:04 | 46.93905 | 3.49134 | 32485 ft | 440 kts | 158° |
| 2026-05-06 08:04 | 46.91076 | 3.50855 | 32665 ft | 441 kts | 158° |
| 2026-05-06 08:04 | 46.88234 | 3.52583 | 32781 ft | 443 kts | 158° |
| 2026-05-06 08:04 | 46.85418 | 3.54293 | 32948 ft | 444 kts | 158° |
| 2026-05-06 08:05 | 46.82530 | 3.56045 | 33172 ft | 444 kts | 158° |
| 2026-05-06 08:05 | 46.79672 | 3.57777 | 33355 ft | 445 kts | 158° |
| 2026-05-06 08:05 | 46.76838 | 3.59491 | 33515 ft | 446 kts | 158° |
| 2026-05-06 08:05 | 46.74033 | 3.61418 | 33656 ft | 449 kts | 147° |
| 2026-05-06 08:06 | 46.71692 | 3.64458 | 33809 ft | 453 kts | 131° |
| 2026-05-06 08:06 | 46.69953 | 3.68282 | 33990 ft | 457 kts | 117° |
| 2026-05-06 08:06 | 46.68917 | 3.72667 | 34122 ft | 461 kts | 106° |
| 2026-05-06 08:06 | 46.68184 | 3.77215 | 34284 ft | 462 kts | 104° |
| 2026-05-06 08:07 | 46.67480 | 3.81789 | 34429 ft | 463 kts | 105° |
| 2026-05-06 08:07 | 46.66743 | 3.86354 | 34582 ft | 463 kts | 106° |
| 2026-05-06 08:07 | 46.65970 | 3.90904 | 34761 ft | 463 kts | 106° |
| 2026-05-06 08:07 | 46.65182 | 3.95439 | 34861 ft | 464 kts | 106° |
| 2026-05-06 08:08 | 46.63593 | 4.04579 | 34854 ft | 465 kts | 107° |
| 2026-05-06 08:08 | 46.62013 | 4.13675 | 34866 ft | 464 kts | 107° |
| 2026-05-06 08:09 | 46.60427 | 4.22762 | 34872 ft | 463 kts | 107° |
| 2026-05-06 08:09 | 46.58835 | 4.31843 | 34862 ft | 463 kts | 107° |
| 2026-05-06 08:10 | 46.57249 | 4.40835 | 34861 ft | 462 kts | 107° |
| 2026-05-06 08:10 | 46.55643 | 4.49898 | 34854 ft | 465 kts | 107° |
| 2026-05-06 08:11 | 46.54012 | 4.59049 | 34853 ft | 469 kts | 107° |
| 2026-05-06 08:11 | 46.52374 | 4.68206 | 34849 ft | 468 kts | 107° |
| 2026-05-06 08:12 | 46.50732 | 4.77334 | 34855 ft | 467 kts | 107° |
| 2026-05-06 08:12 | 46.49085 | 4.86448 | 34841 ft | 466 kts | 108° |
| 2026-05-06 08:13 | 46.47442 | 4.95489 | 34851 ft | 466 kts | 108° |
| 2026-05-06 08:13 | 46.45786 | 5.04567 | 34872 ft | 466 kts | 109° |
| 2026-05-06 08:14 | 46.44115 | 5.13653 | 34857 ft | 467 kts | 109° |
| 2026-05-06 08:14 | 46.42419 | 5.22761 | 34855 ft | 467 kts | 109° |
| 2026-05-06 08:15 | 46.40722 | 5.31848 | 34868 ft | 467 kts | 109° |
| 2026-05-06 08:15 | 46.39015 | 5.40956 | 34874 ft | 469 kts | 109° |
| 2026-05-06 08:16 | 46.37320 | 5.50030 | 34869 ft | 470 kts | 109° |
| 2026-05-06 08:16 | 46.35618 | 5.59188 | 34869 ft | 471 kts | 109° |
| 2026-05-06 08:17 | 46.33910 | 5.68337 | 34862 ft | 471 kts | 110° |
| 2026-05-06 08:17 | 46.32202 | 5.77433 | 34860 ft | 469 kts | 110° |
| 2026-05-06 08:18 | 46.30484 | 5.86529 | 34876 ft | 468 kts | 110° |
| 2026-05-06 08:18 | 46.28759 | 5.95614 | 34878 ft | 468 kts | 110° |
| 2026-05-06 08:19 | 46.27032 | 6.04679 | 34870 ft | 467 kts | 111° |
| 2026-05-06 08:19 | 46.25287 | 6.13709 | 34884 ft | 465 kts | 113° |
| 2026-05-06 08:20 | 46.23027 | 6.22338 | 34888 ft | 461 kts | 118° |
| 2026-05-06 08:20 | 46.20561 | 6.30887 | 34883 ft | 461 kts | 118° |
| 2026-05-06 08:21 | 46.18112 | 6.39477 | 34839 ft | 463 kts | 118° |
| 2026-05-06 08:21 | 46.15698 | 6.48080 | 34867 ft | 464 kts | 118° |
| 2026-05-06 08:22 | 46.13272 | 6.56739 | 34869 ft | 466 kts | 118° |
| 2026-05-06 08:22 | 46.10833 | 6.65418 | 34867 ft | 468 kts | 118° |
| 2026-05-06 08:23 | 46.08381 | 6.74108 | 34849 ft | 468 kts | 118° |
| 2026-05-06 08:23 | 46.05927 | 6.82773 | 34838 ft | 467 kts | 119° |
| 2026-05-06 08:24 | 46.03490 | 6.91346 | 34848 ft | 465 kts | 119° |
| 2026-05-06 08:24 | 46.01032 | 6.99959 | 34855 ft | 464 kts | 119° |
| 2026-05-06 08:25 | 45.98580 | 7.08526 | 34844 ft | 462 kts | 119° |
| 2026-05-06 08:25 | 45.96150 | 7.17068 | 34856 ft | 462 kts | 117° |
| 2026-05-06 08:26 | 45.94729 | 7.26225 | 34871 ft | 474 kts | 105° |
| 2026-05-06 08:26 | 45.93727 | 7.35610 | 34854 ft | 475 kts | 105° |
| 2026-05-06 08:27 | 45.92625 | 7.44927 | 34852 ft | 476 kts | 107° |
| 2026-05-06 08:27 | 45.91116 | 7.54151 | 34862 ft | 474 kts | 111° |
| 2026-05-06 08:28 | 45.89445 | 7.63341 | 34860 ft | 476 kts | 111° |
| 2026-05-06 08:28 | 45.87823 | 7.72561 | 34851 ft | 475 kts | 111° |
| 2026-05-06 08:29 | 45.86225 | 7.81753 | 34853 ft | 475 kts | 110° |
| 2026-05-06 08:29 | 45.84627 | 7.90944 | 34834 ft | 475 kts | 111° |
| 2026-05-06 08:30 | 45.83025 | 8.00116 | 34879 ft | 474 kts | 111° |
| 2026-05-06 08:30 | 45.81414 | 8.09297 | 34845 ft | 474 kts | 111° |
| 2026-05-06 08:31 | 45.79810 | 8.18376 | 34855 ft | 471 kts | 111° |
| 2026-05-06 08:31 | 45.78196 | 8.27443 | 34829 ft | 469 kts | 112° |
| 2026-05-06 08:32 | 45.76564 | 8.36519 | 34864 ft | 474 kts | 112° |
| 2026-05-06 08:32 | 45.74901 | 8.45751 | 34874 ft | 481 kts | 112° |
| 2026-05-06 08:33 | 45.73237 | 8.54991 | 34851 ft | 478 kts | 112° |
| 2026-05-06 08:33 | 45.71581 | 8.64185 | 34862 ft | 475 kts | 112° |
| 2026-05-06 08:34 | 45.69081 | 8.77889 | 34860 ft | 474 kts | 112° |
| 2026-05-06 08:35 | 45.67397 | 8.87050 | 34862 ft | 478 kts | 112° |
| 2026-05-06 08:35 | 45.65696 | 8.96279 | 34866 ft | 480 kts | 113° |
| 2026-05-06 08:36 | 45.64460 | 9.05761 | 34833 ft | 496 kts | 98° |
| 2026-05-06 08:36 | 45.64575 | 9.15620 | 34875 ft | 500 kts | 95° |
| 2026-05-06 08:37 | 45.64784 | 9.25577 | 34874 ft | 501 kts | 95° |
| 2026-05-06 08:37 | 45.64950 | 9.35543 | 34891 ft | 501 kts | 95° |
| 2026-05-06 08:37 | 45.65019 | 9.40518 | 35054 ft | 501 kts | 95° |
| 2026-05-06 08:38 | 45.65085 | 9.45515 | 35070 ft | 502 kts | 96° |
| 2026-05-06 08:38 | 45.65190 | 9.53826 | 35068 ft | 503 kts | 95° |
| 2026-05-06 08:38 | 45.65252 | 9.58814 | 34880 ft | 502 kts | 96° |
| 2026-05-06 08:39 | 45.65311 | 9.63807 | 34876 ft | 502 kts | 96° |
| 2026-05-06 08:39 | 45.65110 | 9.73763 | 34277 ft | 505 kts | 100° |
| 2026-05-06 08:39 | 45.64962 | 9.78775 | 33609 ft | 504 kts | 99° |
| 2026-05-06 08:40 | 45.64898 | 9.83798 | 32819 ft | 506 kts | 97° |
| 2026-05-06 08:40 | 45.64907 | 9.88824 | 32152 ft | 506 kts | 96° |
| 2026-05-06 08:40 | 45.64931 | 9.93856 | 31412 ft | 508 kts | 96° |
| 2026-05-06 08:40 | 45.64943 | 9.98907 | 30648 ft | 508 kts | 96° |
| 2026-05-06 08:41 | 45.64936 | 10.03955 | 29903 ft | 507 kts | 96° |
| 2026-05-06 08:41 | 45.64917 | 10.08991 | 29000 ft | 507 kts | 96° |
| 2026-05-06 08:41 | 45.64893 | 10.14036 | 28138 ft | 507 kts | 96° |
| 2026-05-06 08:41 | 45.64876 | 10.19063 | 27262 ft | 506 kts | 96° |
| 2026-05-06 08:42 | 45.64854 | 10.24070 | 26651 ft | 498 kts | 96° |
| 2026-05-06 08:42 | 45.64842 | 10.28933 | 26087 ft | 492 kts | 95° |
| 2026-05-06 08:42 | 45.64836 | 10.33791 | 25482 ft | 487 kts | 95° |
| 2026-05-06 08:42 | 45.64822 | 10.38600 | 24876 ft | 482 kts | 95° |
| 2026-05-06 08:43 | 45.64801 | 10.43362 | 24280 ft | 476 kts | 95° |
| 2026-05-06 08:43 | 45.64795 | 10.48069 | 23709 ft | 471 kts | 95° |
| 2026-05-06 08:43 | 45.64800 | 10.52730 | 23063 ft | 467 kts | 95° |
| 2026-05-06 08:43 | 45.64805 | 10.57341 | 22410 ft | 461 kts | 95° |
| 2026-05-06 08:44 | 45.64805 | 10.61879 | 21788 ft | 454 kts | 95° |
| 2026-05-06 08:44 | 45.64790 | 10.66366 | 21229 ft | 448 kts | 96° |
| 2026-05-06 08:44 | 45.64751 | 10.70802 | 20627 ft | 444 kts | 96° |
| 2026-05-06 08:44 | 45.64703 | 10.75181 | 20045 ft | 439 kts | 96° |
| 2026-05-06 08:45 | 45.64655 | 10.79523 | 19483 ft | 435 kts | 96° |
| 2026-05-06 08:45 | 45.64608 | 10.83828 | 18928 ft | 431 kts | 96° |
| 2026-05-06 08:45 | 45.64548 | 10.88106 | 18364 ft | 428 kts | 97° |
| 2026-05-06 08:45 | 45.64480 | 10.92358 | 17657 ft | 427 kts | 95° |
| 2026-05-06 08:46 | 45.64454 | 10.96576 | 17090 ft | 421 kts | 95° |
| 2026-05-06 08:46 | 45.64172 | 11.00689 | 16485 ft | 411 kts | 107° |
| 2026-05-06 08:46 | 45.63360 | 11.04482 | 15929 ft | 399 kts | 118° |
| 2026-05-06 08:46 | 45.62110 | 11.08011 | 15363 ft | 388 kts | 128° |
| 2026-05-06 08:47 | 45.60656 | 11.11175 | 14824 ft | 384 kts | 128° |
| 2026-05-06 08:47 | 45.59212 | 11.14375 | 14267 ft | 381 kts | 128° |
| 2026-05-06 08:47 | 45.57787 | 11.17550 | 13604 ft | 380 kts | 128° |
| 2026-05-06 08:47 | 45.56351 | 11.20735 | 12907 ft | 380 kts | 127° |
| 2026-05-06 08:48 | 45.54925 | 11.23894 | 12420 ft | 378 kts | 127° |
| 2026-05-06 08:48 | 45.53513 | 11.27032 | 11985 ft | 375 kts | 127° |
| 2026-05-06 08:48 | 45.52108 | 11.30153 | 11418 ft | 373 kts | 127° |
| 2026-05-06 08:48 | 45.50714 | 11.33231 | 11213 ft | 363 kts | 127° |
| 2026-05-06 08:49 | 45.49370 | 11.36199 | 11139 ft | 351 kts | 127° |
| 2026-05-06 08:49 | 45.48068 | 11.39077 | 11063 ft | 339 kts | 127° |
| 2026-05-06 08:49 | 45.46810 | 11.41857 | 11033 ft | 330 kts | 127° |
| 2026-05-06 08:49 | 45.45571 | 11.44571 | 10978 ft | 324 kts | 127° |
| 2026-05-06 08:50 | 45.44369 | 11.47229 | 10857 ft | 315 kts | 127° |
| 2026-05-06 08:50 | 45.43216 | 11.49775 | 10788 ft | 304 kts | 127° |
| 2026-05-06 08:50 | 45.42186 | 11.52363 | 10718 ft | 298 kts | 118° |
| 2026-05-06 08:50 | 45.41427 | 11.55063 | 10654 ft | 290 kts | 115° |
| 2026-05-06 08:51 | 45.40747 | 11.57740 | 10504 ft | 285 kts | 114° |
| 2026-05-06 08:51 | 45.40079 | 11.60384 | 10222 ft | 284 kts | 114° |
| 2026-05-06 08:51 | 45.39401 | 11.63030 | 9975 ft | 284 kts | 114° |
| 2026-05-06 08:51 | 45.38717 | 11.65656 | 9828 ft | 283 kts | 115° |
| 2026-05-06 08:52 | 45.38026 | 11.68278 | 9747 ft | 281 kts | 114° |
| 2026-05-06 08:52 | 45.37245 | 11.70762 | 9586 ft | 277 kts | 122° |
| 2026-05-06 08:52 | 45.36432 | 11.73314 | 9418 ft | 282 kts | 116° |
| 2026-05-06 08:52 | 45.35869 | 11.76019 | 9288 ft | 288 kts | 107° |
| 2026-05-06 08:53 | 45.35341 | 11.78744 | 9196 ft | 283 kts | 112° |
| 2026-05-06 08:53 | 45.34735 | 11.81403 | 8944 ft | 281 kts | 105° |
| 2026-05-06 08:53 | 45.34438 | 11.84109 | 8525 ft | 282 kts | 102° |
| 2026-05-06 08:53 | 45.34151 | 11.86863 | 8050 ft | 282 kts | 102° |
| 2026-05-06 08:54 | 45.33855 | 11.89626 | 7595 ft | 283 kts | 102° |
| 2026-05-06 08:54 | 45.33551 | 11.92393 | 7163 ft | 285 kts | 102° |
| 2026-05-06 08:54 | 45.33225 | 11.95194 | 6706 ft | 289 kts | 103° |
| 2026-05-06 08:54 | 45.32887 | 11.98029 | 6199 ft | 289 kts | 102° |
| 2026-05-06 08:55 | 45.32557 | 12.00828 | 5719 ft | 286 kts | 102° |
| 2026-05-06 08:55 | 45.32243 | 12.03592 | 5349 ft | 281 kts | 98° |
| 2026-05-06 08:55 | 45.32428 | 12.06316 | 5046 ft | 275 kts | 76° |
| 2026-05-06 08:55 | 45.33024 | 12.08811 | 5007 ft | 259 kts | 72° |
| 2026-05-06 08:56 | 45.33635 | 12.11144 | 4915 ft | 246 kts | 72° |
| 2026-05-06 08:56 | 45.34241 | 12.13425 | 4460 ft | 248 kts | 71° |
| 2026-05-06 08:56 | 45.35150 | 12.15525 | 4002 ft | 258 kts | 45° |
| 2026-05-06 08:56 | 45.36550 | 12.17163 | 3463 ft | 263 kts | 42° |
| 2026-05-06 08:57 | 45.37888 | 12.18851 | 3099 ft | 251 kts | 44° |
| 2026-05-06 08:57 | 45.39154 | 12.20508 | 2746 ft | 243 kts | 45° |
| 2026-05-06 08:57 | 45.40359 | 12.22074 | 2420 ft | 231 kts | 45° |
| 2026-05-06 08:57 | 45.41508 | 12.23555 | 2152 ft | 215 kts | 46° |
| 2026-05-06 08:58 | 45.42583 | 12.24973 | 1883 ft | 208 kts | 45° |
| 2026-05-06 08:58 | 45.43668 | 12.26328 | 1551 ft | 204 kts | 43° |
| 2026-05-06 08:58 | 45.44666 | 12.27618 | 1308 ft | 187 kts | 45° |
| 2026-05-06 08:58 | 45.45587 | 12.28824 | 1060 ft | 172 kts | 45° |
| 2026-05-06 08:59 | 45.46426 | 12.29915 | 831 ft | 160 kts | 46° |
| 2026-05-06 08:59 | 45.47238 | 12.30971 | 589 ft | 157 kts | 45° |
| 2026-05-06 08:59 | 45.48042 | 12.32016 | 416 ft | 155 kts | 43° |
| 2026-05-06 08:59 | 45.48843 | 12.33036 | 202 ft | 155 kts | 44° |
| 2026-05-06 09:00 | 45.49639 | 12.34068 | 15 ft | 150 kts | 40° |
| 2026-05-06 09:00 | 45.50344 | 12.34971 | 10 ft | 117 kts | 41° |
| 2026-05-06 09:00 | 45.50837 | 12.35605 | 15 ft | 73 kts | 42° |
| 2026-05-06 09:00 | 45.51115 | 12.35854 | 10 ft | 36 kts | 14° |
| 2026-05-06 09:01 | 45.51249 | 12.35882 | 10 ft | 13 kts | 336° |
| 2026-05-06 09:01 | 45.51247 | 12.35779 | 11 ft | 13 kts | 223° |
| 2026-05-06 09:01 | 45.51179 | 12.35692 | 13 ft | 13 kts | 221° |
| 2026-05-06 09:01 | 45.51102 | 12.35594 | 14 ft | 18 kts | 222° |
| 2026-05-06 09:02 | 45.50996 | 12.35444 | 17 ft | 24 kts | 242° |
| 2026-05-06 09:02 | 45.50944 | 12.35201 | 19 ft | 26 kts | 237° |
| 2026-05-06 09:02 | 45.50820 | 12.35030 | 16 ft | 24 kts | 220° |
| 2026-05-06 09:02 | 45.50700 | 12.34876 | 14 ft | 23 kts | 221° |
| 2026-05-06 09:03 | 45.50585 | 12.34727 | 13 ft | 22 kts | 222° |
| 2026-05-06 09:03 | 45.50473 | 12.34583 | 17 ft | 21 kts | 222° |
| 2026-05-06 09:03 | 45.50364 | 12.34445 | 18 ft | 21 kts | 221° |
| 2026-05-06 09:03 | 45.50261 | 12.34309 | 17 ft | 20 kts | 223° |
| 2026-05-06 09:04 | 45.50181 | 12.34194 | 16 ft | 10 kts | 250° |
| 2026-05-06 09:04 | 45.50206 | 12.34117 | 16 ft | 4 kts | 312° |
| 2026-05-06 09:04 | 45.50207 | 12.34115 | 17 ft | 0 kts | 312° |